Decoded Metar for KDMW (CARROLL CNTY REG in MD, USA) (IATA:DMW) | Meteo·Mobile Aviation Weather
aviador You're here:

KDMW Decoded Metar

CARROLL CNTY REG in MD, USA
Report Time2019-07-16 10:00:00
UTC Time2019-07-16 10:13:21
Flight Rules vfr VFR
WindCalm
Visibility9999 m
Phenomena:N/A
Clouds:N/A
Expected CloudBase > 1,200 ft AGL from Temp-Dew spread
CeilingNone
Temp21°C (ISA +8)
Dew Point18°C (83% RH)
QNH1019 hPa
Density Alt1,749 ft
Elevation791 ft
Report Wrong Elevation
Raw Report
METAR KDMW 161000Z AUTO 00000KT 10SM CLR 21/18 A3010 RMK AO2=

Extra information for KDMW:More info

Metar Taf Metar & Taf Last 4 Metars F.Rules Stats Wind Profile Meteogram Temp Stats Airport Information Weather charts Add Link Nearby VenuesMetar ALERT Operation Metar Decoded Social comments

AIRNAV info for KDMW